Terminal Aerodrome Forecast
Issued by NWS Cleveland, OH

Home | Current Version | Previous Version | Graphics & Text | Print | Product List | Glossary On
Versions: 1 2 3 4 5 6 7 8 9 10 11 12 13 14 15
106
FTUS41 KCLE 212343
TAFCAK
TAF
KCAK 212343Z 2200/2224 02006KT P6SM SCT018 OVC080
     FM220500 VRB04KT P6SM FEW100 SCT250
     FM221000 30005KT 6SM BR FEW015 SCT120
      TEMPO 2210/2213 3SM BR BKN015
     FM221300 34008KT P6SM BKN080 OVC120
     FM222100 01010KT P6SM OVC035=

USA.gov is the U.S. government's official web portal to all federal, state and local government web resources and services.